createdAt,value
2022-08-12T00:00:07.810Z,18.50
2022-08-12T00:02:54.943Z,18.40
2022-08-12T00:05:57.160Z,18.40
2022-08-12T00:08:55.222Z,18.30
2022-08-12T00:11:41.642Z,18.30
2022-08-12T00:14:27.138Z,18.30
2022-08-12T00:17:12.647Z,18.20
2022-08-12T00:19:57.998Z,18.20
2022-08-12T00:22:43.447Z,18.20
2022-08-12T00:26:01.367Z,18.20
2022-08-12T00:28:35.335Z,18.20
2022-08-12T00:31:20.720Z,18.00
2022-08-12T00:34:06.013Z,18.00
2022-08-12T00:36:51.514Z,18.00
2022-08-12T00:39:37.523Z,17.90
2022-08-12T00:42:10.833Z,17.90
2022-08-12T00:44:48.229Z,17.80
2022-08-12T00:47:25.254Z,17.80
2022-08-12T00:49:55.321Z,17.70
2022-08-12T00:52:23.409Z,17.70
2022-08-12T00:54:53.692Z,17.70
2022-08-12T00:57:22.034Z,17.70
2022-08-12T00:59:57.450Z,17.70
2022-08-12T01:02:27.685Z,17.70
2022-08-12T01:05:23.149Z,17.60
2022-08-12T01:08:11.041Z,17.60
2022-08-12T01:11:01.464Z,17.60
2022-08-12T01:13:31.083Z,17.50
2022-08-12T01:16:00.482Z,17.50
2022-08-12T01:18:29.684Z,17.40
2022-08-12T01:21:17.425Z,17.30
2022-08-12T01:23:51.407Z,17.30
2022-08-12T01:26:23.852Z,17.30
2022-08-12T01:28:55.335Z,17.20
2022-08-12T01:31:25.666Z,17.20
2022-08-12T01:34:28.614Z,17.20
2022-08-12T01:36:59.326Z,17.10
2022-08-12T01:39:35.579Z,17.10
2022-08-12T01:42:07.317Z,17.00
2022-08-12T01:44:34.762Z,17.00
2022-08-12T01:47:19.125Z,16.90
2022-08-12T01:49:54.847Z,16.90
2022-08-12T01:52:53.003Z,16.90
2022-08-12T01:55:23.497Z,16.90
2022-08-12T01:58:01.653Z,16.90
2022-08-12T02:00:55.416Z,16.80
2022-08-12T02:04:05.963Z,16.80
2022-08-12T02:07:07.136Z,16.80
2022-08-12T02:10:50.269Z,16.80
2022-08-12T02:13:10.263Z,16.80
2022-08-12T02:15:58.941Z,16.80
2022-08-12T02:18:37.939Z,16.80
2022-08-12T02:21:12.205Z,16.70
2022-08-12T02:23:40.900Z,16.70
2022-08-12T02:26:09.567Z,16.70
2022-08-12T02:28:39.867Z,16.60
2022-08-12T02:31:08.897Z,16.60
2022-08-12T02:33:37.755Z,16.60
2022-08-12T02:36:05.711Z,16.60
2022-08-12T02:38:33.086Z,16.50
2022-08-12T02:41:05.142Z,16.50
2022-08-12T02:43:45.899Z,16.40
2022-08-12T02:46:15.634Z,16.40
2022-08-12T02:49:04.591Z,16.40
2022-08-12T02:51:39.075Z,16.40
2022-08-12T02:54:07.393Z,16.40
2022-08-12T02:56:50.845Z,16.40
2022-08-12T02:59:22.484Z,16.40
2022-08-12T03:02:03.392Z,16.30
2022-08-12T03:04:43.867Z,16.40
2022-08-12T03:07:36.507Z,16.40
2022-08-12T03:10:34.730Z,16.30
2022-08-12T03:13:07.364Z,16.30
2022-08-12T03:15:35.859Z,16.30
2022-08-12T03:18:25.536Z,16.30
2022-08-12T03:20:54.590Z,16.20
2022-08-12T03:23:30.189Z,16.10
2022-08-12T03:26:01.229Z,16.20
2022-08-12T03:28:53.966Z,16.10
2022-08-12T03:31:29.765Z,16.10
2022-08-12T03:34:03.405Z,16.10
2022-08-12T03:36:32.186Z,16.10
2022-08-12T03:39:22.960Z,16.00
2022-08-12T03:42:28.114Z,15.90
2022-08-12T03:45:51.699Z,15.80
2022-08-12T03:48:39.091Z,15.90
2022-08-12T03:51:24.988Z,15.80
2022-08-12T03:54:11.513Z,15.80
2022-08-12T03:56:58.260Z,15.80
2022-08-12T03:59:44.216Z,15.90
2022-08-12T04:02:15.113Z,15.80
2022-08-12T04:04:45.353Z,15.90
2022-08-12T04:07:13.622Z,16.00
2022-08-12T04:09:42.973Z,16.00
2022-08-12T04:12:32.650Z,16.00
2022-08-12T04:15:00.845Z,16.00
2022-08-12T04:17:28.245Z,16.00
2022-08-12T04:19:57.291Z,16.10
2022-08-12T04:22:30.507Z,16.20
2022-08-12T04:25:01.205Z,16.30
2022-08-12T04:27:32.114Z,16.40
2022-08-12T04:30:29.514Z,16.60
2022-08-12T04:32:50.726Z,16.80
2022-08-12T04:35:17.892Z,17.00
2022-08-12T04:37:58.677Z,17.20
2022-08-12T04:40:29.693Z,17.50
2022-08-12T04:42:57.245Z,17.70
2022-08-12T04:45:24.870Z,17.90
2022-08-12T04:47:51.989Z,18.20
2022-08-12T04:50:34.435Z,18.40
2022-08-12T04:53:02.802Z,18.70
2022-08-12T04:55:29.983Z,19.00
2022-08-12T04:57:56.783Z,19.30
2022-08-12T05:00:23.550Z,19.60
2022-08-12T05:02:50.354Z,19.90
2022-08-12T05:05:20.427Z,20.20
2022-08-12T05:07:54.569Z,20.50
2022-08-12T05:10:34.012Z,20.90
2022-08-12T05:13:11.338Z,21.30
2022-08-12T05:15:53.102Z,21.60
2022-08-12T05:18:29.223Z,21.80
2022-08-12T05:20:56.614Z,22.10
2022-08-12T05:23:23.486Z,22.40
2022-08-12T05:25:51.922Z,22.70
2022-08-12T05:28:18.848Z,22.90
2022-08-12T05:30:46.427Z,23.20
2022-08-12T05:33:15.662Z,23.50
2022-08-12T05:35:44.931Z,23.80
2022-08-12T05:38:37.530Z,24.10
2022-08-12T05:41:19.117Z,24.40
2022-08-12T05:43:53.856Z,24.60
2022-08-12T05:46:22.330Z,24.80
2022-08-12T05:48:50.128Z,25.10
2022-08-12T05:51:17.526Z,25.50
2022-08-12T05:53:44.686Z,25.80
2022-08-12T05:56:26.545Z,26.20
2022-08-12T05:58:54.525Z,26.60
2022-08-12T06:02:10.004Z,27.00
2022-08-12T06:04:09.881Z,27.30
2022-08-12T06:06:41.632Z,27.60
2022-08-12T06:09:13.243Z,27.80
2022-08-12T06:11:54.004Z,28.10
2022-08-12T06:14:37.210Z,28.40
2022-08-12T06:17:07.469Z,28.50
2022-08-12T06:20:27.353Z,28.60
2022-08-12T06:22:20.898Z,28.90
2022-08-12T06:24:49.673Z,29.30
2022-08-12T06:27:18.633Z,29.70
2022-08-12T06:30:10.221Z,29.80
2022-08-12T06:32:32.347Z,30.00
2022-08-12T06:35:25.526Z,30.20
2022-08-12T06:37:51.567Z,30.40
2022-08-12T06:40:43.637Z,30.70
2022-08-12T06:43:10.970Z,31.00
2022-08-12T06:45:46.858Z,31.50
2022-08-12T06:48:14.612Z,32.00
2022-08-12T06:50:42.455Z,32.50
2022-08-12T06:53:11.293Z,32.60
2022-08-12T06:55:39.275Z,32.60
2022-08-12T06:58:25.596Z,32.40
2022-08-12T07:00:53.334Z,32.30
2022-08-12T07:03:27.899Z,32.20
2022-08-12T07:06:00.479Z,32.10
2022-08-12T07:08:29.315Z,32.00
2022-08-12T07:10:59.162Z,31.80
2022-08-12T07:14:12.846Z,31.80
2022-08-12T07:16:26.800Z,31.70
2022-08-12T07:18:55.329Z,31.70
2022-08-12T07:21:23.308Z,31.60
2022-08-12T07:24:10.032Z,31.80
2022-08-12T07:26:40.504Z,32.20
2022-08-12T07:29:11.712Z,32.20
2022-08-12T07:31:38.792Z,32.40
2022-08-12T07:34:06.307Z,32.40
2022-08-12T07:36:33.842Z,32.40
2022-08-12T07:39:01.044Z,32.60
2022-08-12T07:41:30.468Z,33.10
2022-08-12T07:44:04.840Z,33.70
2022-08-12T07:46:38.908Z,34.10
2022-08-12T07:49:09.028Z,34.20
2022-08-12T07:51:36.241Z,34.50
2022-08-12T07:54:09.165Z,35.10
2022-08-12T07:56:40.418Z,35.40
2022-08-12T07:59:08.736Z,35.50
2022-08-12T08:01:39.728Z,35.40
2022-08-12T08:04:25.826Z,35.00
2022-08-12T08:06:53.447Z,34.60
2022-08-12T08:09:22.235Z,34.60
2022-08-12T08:12:08.319Z,34.30
2022-08-12T08:14:35.231Z,34.20
2022-08-12T08:17:03.528Z,34.30
2022-08-12T08:19:33.525Z,34.40
2022-08-12T08:22:20.267Z,34.80
2022-08-12T08:25:35.915Z,35.00
2022-08-12T08:27:54.326Z,34.80
2022-08-12T08:30:21.077Z,34.30
2022-08-12T08:32:48.643Z,33.80
2022-08-12T08:35:23.135Z,33.80
2022-08-12T08:37:53.640Z,33.50
2022-08-12T08:40:39.523Z,33.30
2022-08-12T08:43:07.558Z,33.20
2022-08-12T08:45:34.689Z,33.20
2022-08-12T08:48:02.342Z,33.20
2022-08-12T08:50:29.244Z,33.20
2022-08-12T08:52:56.069Z,33.30
2022-08-12T08:55:33.420Z,33.50
2022-08-12T08:58:10.951Z,33.80
2022-08-12T09:00:39.668Z,34.20
2022-08-12T09:03:53.931Z,34.50
2022-08-12T09:06:02.866Z,34.60
2022-08-12T09:08:30.214Z,34.50
2022-08-12T09:14:12.255Z,34.60
2022-08-12T09:16:42.842Z,34.80
2022-08-12T09:19:27.454Z,35.20
2022-08-12T09:21:55.637Z,35.60
2022-08-12T09:24:22.461Z,35.80
2022-08-12T09:26:49.766Z,35.80
2022-08-12T09:30:11.418Z,36.00
2022-08-12T09:32:31.412Z,35.90
2022-08-12T09:34:56.643Z,35.70
2022-08-12T09:37:28.285Z,35.50
2022-08-12T09:41:01.709Z,35.30
2022-08-12T09:43:24.924Z,35.10
2022-08-12T09:46:19.642Z,35.20
2022-08-12T09:48:39.391Z,35.10
2022-08-12T09:51:16.919Z,35.30
2022-08-12T09:54:05.638Z,35.50
2022-08-12T09:57:01.094Z,35.20
2022-08-12T10:00:15.390Z,35.10
2022-08-12T10:02:45.018Z,35.00
2022-08-12T10:05:00.464Z,35.00
2022-08-12T10:07:40.348Z,35.20
2022-08-12T10:10:24.897Z,35.60
2022-08-12T10:13:19.436Z,36.00
2022-08-12T10:16:05.257Z,36.30
2022-08-12T10:18:35.274Z,36.20
2022-08-12T10:21:09.492Z,36.10
2022-08-12T10:23:46.047Z,36.10
2022-08-12T10:26:39.316Z,36.30
2022-08-12T10:30:37.334Z,36.30
2022-08-12T10:32:45.077Z,35.80
2022-08-12T10:35:07.392Z,35.60
2022-08-12T10:38:39.128Z,35.80
2022-08-12T10:40:28.541Z,36.10
2022-08-12T10:43:17.014Z,36.20
2022-08-12T10:45:46.132Z,36.00
2022-08-12T10:48:23.055Z,35.80
2022-08-12T10:51:00.365Z,35.70
2022-08-12T10:53:45.595Z,35.60
2022-08-12T10:56:18.015Z,35.30
2022-08-12T10:58:46.813Z,35.20
2022-08-12T11:01:50.405Z,35.30
2022-08-12T11:04:25.627Z,35.40
2022-08-12T11:07:10.202Z,36.00
2022-08-12T11:09:55.855Z,36.50
2022-08-12T11:12:56.421Z,36.30
2022-08-12T11:15:20.599Z,36.40
2022-08-12T11:17:53.286Z,36.40
2022-08-12T11:20:24.403Z,36.30
2022-08-12T11:22:59.102Z,36.30
2022-08-12T11:25:57.872Z,35.90
2022-08-12T11:28:13.997Z,35.90
2022-08-12T11:30:41.732Z,36.40
2022-08-12T11:33:12.328Z,36.90
2022-08-12T11:35:54.016Z,37.40
2022-08-12T11:38:24.640Z,37.10
2022-08-12T11:40:52.031Z,36.60
2022-08-12T11:43:20.548Z,36.20
2022-08-12T11:45:47.684Z,36.30
2022-08-12T11:48:19.857Z,36.50
2022-08-12T11:50:53.592Z,36.00
2022-08-12T11:53:58.557Z,35.40
2022-08-12T11:56:07.757Z,35.20
2022-08-12T12:01:39.045Z,34.90
2022-08-12T12:02:02.813Z,35.10
2022-08-12T12:04:12.658Z,35.30
2022-08-12T12:06:56.112Z,35.50
2022-08-12T12:09:51.884Z,35.50
2022-08-12T12:12:22.559Z,35.60
2022-08-12T12:14:54.603Z,35.60
2022-08-12T12:17:24.426Z,35.70
2022-08-12T12:19:53.161Z,35.50
2022-08-12T12:22:23.596Z,35.10
2022-08-12T12:24:54.440Z,35.00
2022-08-12T12:27:39.361Z,35.40
2022-08-12T12:30:17.615Z,36.10
2022-08-12T12:32:53.279Z,36.90
2022-08-12T12:36:06.339Z,37.20
2022-08-12T12:38:12.529Z,37.10
2022-08-12T12:40:43.640Z,36.70
2022-08-12T12:43:12.888Z,36.70
2022-08-12T12:45:44.349Z,37.10
2022-08-12T12:48:15.480Z,37.30
2022-08-12T12:50:51.413Z,36.80
2022-08-12T12:54:05.201Z,36.50
2022-08-12T12:56:15.479Z,36.10
2022-08-12T12:58:43.625Z,35.80
2022-08-12T13:01:26.792Z,35.40
2022-08-12T13:03:56.472Z,35.20
2022-08-12T13:06:30.718Z,35.30
2022-08-12T13:09:03.024Z,35.30
2022-08-12T13:11:42.112Z,35.00
2022-08-12T13:14:28.214Z,35.20
2022-08-12T13:17:01.053Z,35.30
2022-08-12T13:19:36.621Z,35.40
2022-08-12T13:22:18.459Z,35.70
2022-08-12T13:24:46.710Z,36.10
2022-08-12T13:27:20.657Z,36.20
2022-08-12T13:29:48.847Z,35.50
2022-08-12T13:32:18.998Z,35.20
2022-08-12T13:35:04.305Z,35.30
2022-08-12T13:37:54.665Z,35.40
2022-08-12T13:40:33.135Z,35.30
2022-08-12T13:43:01.971Z,35.20
2022-08-12T13:45:30.885Z,34.90
2022-08-12T13:48:03.405Z,34.20
2022-08-12T13:50:39.013Z,33.30
2022-08-12T13:53:24.304Z,32.30
2022-08-12T13:56:01.605Z,31.60
2022-08-12T13:58:30.817Z,30.70
2022-08-12T14:01:04.579Z,30.10
2022-08-12T14:03:50.444Z,29.70
2022-08-12T14:06:18.359Z,30.00
2022-08-12T14:08:45.488Z,30.90
2022-08-12T14:11:18.186Z,31.70
2022-08-12T14:14:03.630Z,32.40
2022-08-12T14:16:46.593Z,32.80
2022-08-12T14:19:22.646Z,33.10
2022-08-12T14:22:01.530Z,33.10
2022-08-12T14:24:35.375Z,33.20
2022-08-12T14:27:03.765Z,32.90
2022-08-12T14:29:55.772Z,32.60
2022-08-12T14:32:23.726Z,32.50
2022-08-12T14:34:52.766Z,32.60
2022-08-12T14:37:56.266Z,32.00
2022-08-12T14:40:11.754Z,31.30
2022-08-12T14:42:47.016Z,30.70
2022-08-12T14:45:14.322Z,30.40
2022-08-12T14:47:58.592Z,30.30
2022-08-12T14:50:42.049Z,30.30
2022-08-12T14:55:13.870Z,30.20
2022-08-12T14:59:23.330Z,30.20
2022-08-12T15:01:52.161Z,29.90
2022-08-12T15:04:24.630Z,29.60
2022-08-12T15:06:54.951Z,29.50
2022-08-12T15:09:29.220Z,29.40
2022-08-12T15:12:03.539Z,29.30
2022-08-12T15:14:35.348Z,29.30
2022-08-12T15:17:06.996Z,29.40
2022-08-12T15:20:11.517Z,29.60
2022-08-12T15:22:36.048Z,29.70
2022-08-12T15:25:07.426Z,29.60
2022-08-12T15:28:04.549Z,29.50
2022-08-12T15:30:31.272Z,29.40
2022-08-12T15:32:59.176Z,29.30
2022-08-12T15:35:31.287Z,29.20
2022-08-12T15:38:11.995Z,29.10
2022-08-12T15:40:46.869Z,29.10
2022-08-12T15:44:16.458Z,29.00
2022-08-12T15:46:04.761Z,28.80
2022-08-12T15:48:32.728Z,28.60
2022-08-12T15:51:00.623Z,28.60
2022-08-12T15:53:46.938Z,28.70
2022-08-12T15:56:29.536Z,28.60
2022-08-12T15:58:59.152Z,28.50
2022-08-12T16:01:35.661Z,28.40
2022-08-12T16:04:05.400Z,28.30
2022-08-12T16:10:05.182Z,28.10
2022-08-12T16:12:12.062Z,28.10
2022-08-12T16:14:39.745Z,28.00
2022-08-12T16:17:08.748Z,28.10
2022-08-12T16:20:05.002Z,28.10
2022-08-12T16:22:24.452Z,28.00
2022-08-12T16:24:54.087Z,28.00
2022-08-12T16:27:25.603Z,27.80
2022-08-12T16:29:57.660Z,27.70
2022-08-12T16:32:31.304Z,27.60
2022-08-12T16:35:00.784Z,27.60
2022-08-12T16:38:05.027Z,27.60
2022-08-12T16:40:18.808Z,27.50
2022-08-12T16:43:01.643Z,27.40
2022-08-12T16:45:58.170Z,27.40
2022-08-12T16:48:33.656Z,27.30
2022-08-12T16:51:09.241Z,27.30
2022-08-12T16:53:44.461Z,27.20
2022-08-12T16:56:15.072Z,27.20
2022-08-12T16:58:43.506Z,27.20
2022-08-12T17:01:14.470Z,27.20
2022-08-12T17:03:48.838Z,27.10
2022-08-12T17:06:22.282Z,27.00
2022-08-12T17:09:02.656Z,26.90
2022-08-12T17:11:33.062Z,26.90
2022-08-12T17:14:01.512Z,26.90
2022-08-12T17:16:30.279Z,26.80
2022-08-12T17:19:03.319Z,26.80
2022-08-12T17:21:41.766Z,26.80
2022-08-12T17:24:21.405Z,26.80
2022-08-12T17:26:53.088Z,26.70
2022-08-12T17:29:32.386Z,26.70
2022-08-12T17:32:11.095Z,26.60
2022-08-12T17:35:10.356Z,26.50
2022-08-12T17:37:38.832Z,26.40
2022-08-12T17:40:35.284Z,26.40
2022-08-12T17:43:54.796Z,26.30
2022-08-12T17:45:56.140Z,26.30
2022-08-12T17:48:35.206Z,26.20
2022-08-12T17:51:15.081Z,26.20
2022-08-12T17:54:11.345Z,26.20
2022-08-12T17:56:37.210Z,26.10
2022-08-12T17:59:07.459Z,26.00
2022-08-12T18:01:35.830Z,26.00
2022-08-12T18:04:21.432Z,26.00
2022-08-12T18:06:50.639Z,25.90
2022-08-12T18:09:18.031Z,25.90
2022-08-12T18:12:07.739Z,25.90
2022-08-12T18:14:37.994Z,25.80
2022-08-12T18:17:09.811Z,25.70
2022-08-12T18:20:04.927Z,25.70
2022-08-12T18:22:30.706Z,25.60
2022-08-12T18:26:11.549Z,25.50
2022-08-12T18:28:15.303Z,25.40
2022-08-12T18:30:52.920Z,25.30
2022-08-12T18:33:25.126Z,25.20
2022-08-12T18:35:55.747Z,25.20
2022-08-12T18:38:25.541Z,25.10
2022-08-12T18:41:21.629Z,25.00
2022-08-12T18:44:02.615Z,24.90
2022-08-12T18:46:37.372Z,24.80
2022-08-12T18:49:18.797Z,24.70
2022-08-12T18:51:55.404Z,24.70
2022-08-12T18:54:32.386Z,24.60
2022-08-12T18:57:02.034Z,24.50
2022-08-12T19:00:00.816Z,24.40
2022-08-12T19:02:22.455Z,24.40
2022-08-12T19:04:52.978Z,24.30
2022-08-12T19:07:29.546Z,24.30
2022-08-12T19:10:13.740Z,24.20
2022-08-12T19:13:00.534Z,24.10
2022-08-12T19:15:30.126Z,24.00
2022-08-12T19:18:02.779Z,23.90
2022-08-12T19:20:31.848Z,23.90
2022-08-12T19:23:02.506Z,23.80
2022-08-12T19:26:00.079Z,23.80
2022-08-12T19:28:30.400Z,23.70
2022-08-12T19:31:55.848Z,23.60
2022-08-12T19:37:16.511Z,23.50
2022-08-12T19:40:08.830Z,23.40
2022-08-12T19:42:32.593Z,23.30
2022-08-12T19:45:05.018Z,23.30
2022-08-12T19:47:38.818Z,23.20
2022-08-12T19:50:11.105Z,23.20
2022-08-12T19:52:40.713Z,23.10
2022-08-12T19:55:11.534Z,23.10
2022-08-12T19:58:02.539Z,23.10
2022-08-12T20:00:34.817Z,23.00
2022-08-12T20:03:04.521Z,23.00
2022-08-12T20:06:05.881Z,22.90
2022-08-12T20:08:29.388Z,22.90
2022-08-12T20:12:09.895Z,22.80
2022-08-12T20:14:01.020Z,22.60
2022-08-12T20:16:52.276Z,22.50
2022-08-12T20:19:23.467Z,22.40
2022-08-12T20:21:50.882Z,22.30
2022-08-12T20:24:19.328Z,22.20
2022-08-12T20:26:46.676Z,22.10
2022-08-12T20:29:16.564Z,22.10
2022-08-12T20:31:44.173Z,22.20
2022-08-12T20:34:12.384Z,22.20
2022-08-12T20:36:44.768Z,22.20
2022-08-12T20:39:37.459Z,22.30
2022-08-12T20:42:07.036Z,22.30
2022-08-12T20:44:36.463Z,22.40
2022-08-12T20:47:18.715Z,22.40
2022-08-12T20:49:56.060Z,22.40
2022-08-12T20:52:29.797Z,22.40
2022-08-12T20:54:57.735Z,22.40
2022-08-12T20:57:37.489Z,22.30
2022-08-12T21:00:14.570Z,22.30
2022-08-12T21:02:49.760Z,22.20
2022-08-12T21:06:09.501Z,22.10
2022-08-12T21:08:26.555Z,22.00
2022-08-12T21:10:58.787Z,21.90
2022-08-12T21:13:26.999Z,21.80
2022-08-12T21:15:59.913Z,21.70
2022-08-12T21:18:29.271Z,21.60
2022-08-12T21:20:58.813Z,21.60
2022-08-12T21:23:30.616Z,21.50
2022-08-12T21:26:16.184Z,21.40
2022-08-12T21:28:56.714Z,21.30
2022-08-12T21:32:39.666Z,21.30
2022-08-12T21:34:17.994Z,21.20
2022-08-12T21:36:49.353Z,21.10
2022-08-12T21:39:21.165Z,21.10
2022-08-12T21:41:51.464Z,21.20
2022-08-12T21:45:43.608Z,21.10
2022-08-12T21:47:20.902Z,21.10
2022-08-12T21:50:03.728Z,21.10
2022-08-12T21:52:37.593Z,21.20
2022-08-12T21:55:18.810Z,21.20
2022-08-12T21:57:54.086Z,21.30
2022-08-12T22:00:34.427Z,21.30
2022-08-12T22:04:02.728Z,21.30
2022-08-12T22:06:26.233Z,21.20
2022-08-12T22:09:17.125Z,21.20
2022-08-12T22:11:56.003Z,21.10
2022-08-12T22:14:24.872Z,21.00
2022-08-12T22:16:54.684Z,20.90
2022-08-12T22:19:23.048Z,20.80
2022-08-12T22:21:53.930Z,20.80
2022-08-12T22:24:27.152Z,20.70
2022-08-12T22:27:14.355Z,20.70
2022-08-12T22:30:17.054Z,20.60
2022-08-12T22:32:51.611Z,20.50
2022-08-12T22:35:29.738Z,20.30
2022-08-12T22:38:20.615Z,20.30
2022-08-12T22:40:48.632Z,20.20
2022-08-12T22:43:34.421Z,20.10
2022-08-12T22:46:20.626Z,20.00
2022-08-12T22:48:50.680Z,19.90
2022-08-12T22:51:21.945Z,19.90
2022-08-12T22:53:53.631Z,19.80
2022-08-12T22:56:31.434Z,19.80
2022-08-12T22:59:02.870Z,19.80
2022-08-12T23:02:00.841Z,19.70
2022-08-12T23:04:27.773Z,19.70
2022-08-12T23:06:58.220Z,19.70
2022-08-12T23:09:44.823Z,19.70
2022-08-12T23:12:37.500Z,19.60
2022-08-12T23:15:13.608Z,19.60
2022-08-12T23:17:41.820Z,19.60
2022-08-12T23:20:10.970Z,19.50
2022-08-12T23:22:38.778Z,19.50
2022-08-12T23:25:20.916Z,19.50
2022-08-12T23:28:29.475Z,19.50
2022-08-12T23:30:58.731Z,19.50
2022-08-12T23:34:00.584Z,19.40
2022-08-12T23:36:39.006Z,19.40
2022-08-12T23:40:13.198Z,19.40
2022-08-12T23:42:16.654Z,19.30
2022-08-12T23:44:47.261Z,19.30
2022-08-12T23:47:16.095Z,19.30
2022-08-12T23:49:57.958Z,19.30
2022-08-12T23:52:27.596Z,19.20
2022-08-12T23:55:24.110Z,19.20
2022-08-12T23:58:17.462Z,19.20
